Time;durP1;ratioP1;P1;durP2;ratioP2;P2;SDS_P1;SDS_P2;PMS_P1;PMS_P2;Temp;Humidity;BMP_temperature;BMP_pressure;BME280_temperature;BME280_humidity;BME280_pressure;Samples;Min_cycle;Max_cycle;Signal;HPM_P1;HPM_P2
2022/03/12 00:01:53;;;;;;;33.13;14.55;;;;;;;-3.12;43.18;102070.00;5590287;31;34878;-62
2022/03/12 00:04:57;;;;;;;30.40;15.27;;;;;;;-3.09;43.59;102071.66;5590441;31;34365;-62
2022/03/12 00:08:02;;;;;;;31.60;15.52;;;;;;;-2.98;43.82;102066.19;5590387;31;34239;-62
2022/03/12 00:11:05;;;;;;;30.98;14.25;;;;;;;-2.97;44.10;102070.50;5590474;31;34876;-62
2022/03/12 00:14:08;;;;;;;32.22;14.87;;;;;;;-2.95;44.09;102081.69;5590374;31;35091;-62
2022/03/12 00:17:13;;;;;;;33.55;13.57;;;;;;;-3.16;44.58;102077.91;5590195;31;34230;-62
2022/03/12 00:20:21;;;;;;;31.25;14.57;;;;;;;-3.25;45.20;102068.63;5590438;31;34351;-62
2022/03/12 00:23:25;;;;;;;28.55;13.40;;;;;;;-3.17;43.86;102074.44;5590363;31;34823;-63
2022/03/12 00:26:29;;;;;;;28.45;13.68;;;;;;;-3.17;43.88;102069.25;5590228;31;34191;-62
2022/03/12 00:29:32;;;;;;;31.77;13.32;;;;;;;-3.08;43.92;102086.34;5590157;31;34263;-63
2022/03/12 00:32:35;;;;;;;29.25;13.98;;;;;;;-2.95;43.10;102074.72;5589404;31;34208;-62
2022/03/12 00:35:38;;;;;;;32.33;14.45;;;;;;;-3.23;44.19;102074.59;5590504;31;34231;-62
2022/03/12 00:38:43;;;;;;;33.53;15.23;;;;;;;-3.14;46.04;102070.91;5590195;31;34172;-62
2022/03/12 00:41:47;;;;;;;30.05;15.15;;;;;;;-3.10;45.29;102086.38;5590041;31;34486;-62
2022/03/12 00:44:49;;;;;;;28.02;14.05;;;;;;;-3.07;43.71;102080.25;5590085;31;34325;-62
2022/03/12 00:47:52;;;;;;;32.30;14.95;;;;;;;-3.25;44.18;102076.41;5590080;31;35453;-62
2022/03/12 00:50:55;;;;;;;30.30;14.27;;;;;;;-3.37;43.76;102081.03;5590018;31;34367;-62
2022/03/12 00:53:58;;;;;;;35.97;14.45;;;;;;;-3.46;43.69;102094.22;5590141;31;34655;-62
2022/03/12 00:57:00;;;;;;;27.27;13.43;;;;;;;-3.30;42.40;102074.81;5590067;31;35408;-62
2022/03/12 01:00:11;;;;;;;29.83;13.13;;;;;;;-3.39;42.02;102075.91;5589717;31;35553;-62
2022/03/12 01:03:13;;;;;;;24.08;11.98;;;;;;;-3.40;41.36;102083.72;5590021;31;34836;-62
2022/03/12 01:06:18;;;;;;;23.45;12.05;;;;;;;-3.41;41.21;102094.97;5590218;31;34169;-62
2022/03/12 01:09:21;;;;;;;24.80;10.45;;;;;;;-3.63;41.88;102079.09;5589985;31;34907;-62
2022/03/12 01:12:24;;;;;;;23.90;11.38;;;;;;;-3.42;41.17;102069.91;5589908;31;34452;-62
2022/03/12 01:15:27;;;;;;;21.15;9.88;;;;;;;-3.44;41.10;102082.94;5589830;31;34585;-62
2022/03/12 01:18:37;;;;;;;21.20;9.75;;;;;;;-3.52;41.71;102087.44;5589905;31;34239;-62
2022/03/12 01:21:40;;;;;;;30.37;9.48;;;;;;;-3.48;40.89;102086.47;5589886;31;34521;-62
2022/03/12 01:24:42;;;;;;;17.23;8.93;;;;;;;-3.60;40.77;102085.03;5589778;31;33811;-62
2022/03/12 01:27:45;;;;;;;18.05;8.55;;;;;;;-3.60;41.21;102077.25;5590024;31;34275;-61
2022/03/12 01:30:48;;;;;;;19.05;8.25;;;;;;;-3.29;40.75;102081.72;5589864;31;34157;-62
2022/03/12 01:33:51;;;;;;;17.27;8.48;;;;;;;-3.46;40.78;102089.91;5589632;31;35453;-62
2022/03/12 01:36:53;;;;;;;16.87;7.90;;;;;;;-3.51;41.18;102082.22;5589715;31;34842;-62
2022/03/12 01:39:56;;;;;;;17.08;8.43;;;;;;;-3.55;41.65;102087.53;5590030;31;34920;-62
2022/03/12 01:43:00;;;;;;;17.33;7.62;;;;;;;-3.59;42.00;102078.97;5589667;31;34174;-62
2022/03/12 01:46:09;;;;;;;15.77;7.72;;;;;;;-3.51;41.97;102087.41;5589994;31;34087;-62
2022/03/12 01:49:16;;;;;;;17.70;7.95;;;;;;;-3.48;42.08;102085.62;5588800;31;34433;-62
2022/03/12 01:52:20;;;;;;;15.43;7.80;;;;;;;-3.55;42.36;102084.94;5589597;31;34303;-62
2022/03/12 01:55:23;;;;;;;15.30;7.47;;;;;;;-3.58;42.41;102082.38;5589541;31;34575;-62
2022/03/12 01:58:26;;;;;;;15.77;7.72;;;;;;;-3.52;43.00;102079.66;5589805;31;34905;-62
2022/03/12 02:01:30;;;;;;;18.40;8.15;;;;;;;-3.57;42.81;102084.09;5589341;31;34937;-62
2022/03/12 02:04:34;;;;;;;16.70;7.82;;;;;;;-3.56;42.87;102093.59;5589308;31;34144;-62
2022/03/12 02:07:36;;;;;;;16.23;7.80;;;;;;;-3.82;43.42;102085.56;5589308;31;34458;-62
2022/03/12 02:10:40;;;;;;;14.55;7.15;;;;;;;-3.61;42.74;102085.94;5589297;31;34974;-63
2022/03/12 02:13:43;;;;;;;14.27;6.80;;;;;;;-3.52;43.17;102087.44;5588302;31;34144;-62
2022/03/12 02:16:51;;;;;;;14.55;7.12;;;;;;;-3.70;43.28;102088.75;5589294;31;34227;-61
2022/03/12 02:19:54;;;;;;;14.43;7.35;;;;;;;-3.64;42.99;102092.94;5589126;31;34276;-62
2022/03/12 02:22:57;;;;;;;15.23;6.93;;;;;;;-3.69;43.20;102079.22;5589209;31;34882;-62
2022/03/12 02:26:02;;;;;;;16.05;6.70;;;;;;;-3.63;43.24;102094.66;5588423;31;34711;-62
2022/03/12 02:29:12;;;;;;;17.15;6.75;;;;;;;-3.35;42.78;102093.09;5589081;31;34700;-61
2022/03/12 02:32:14;;;;;;;15.80;7.37;;;;;;;-3.54;42.97;102094.44;5588822;31;34251;-62
2022/03/12 02:35:24;;;;;;;16.95;7.07;;;;;;;-3.69;43.20;102090.44;5588960;31;34338;-61
2022/03/12 02:38:28;;;;;;;17.02;7.07;;;;;;;-3.61;43.45;102095.44;5589003;31;34129;-63
2022/03/12 02:41:33;;;;;;;16.08;7.22;;;;;;;-3.44;42.88;102098.50;5588876;31;34262;-62
2022/03/12 02:44:35;;;;;;;16.27;6.87;;;;;;;-3.81;43.58;102087.28;5588954;31;34851;-62
2022/03/12 02:47:43;;;;;;;15.00;7.20;;;;;;;-3.72;44.03;102098.28;5588915;31;34154;-62
2022/03/12 02:50:45;;;;;;;12.70;6.93;;;;;;;-3.84;44.36;102095.13;5589160;31;34204;-63
2022/03/12 02:53:51;;;;;;;12.65;6.68;;;;;;;-4.01;44.53;102095.50;5588873;31;34177;-62
2022/03/12 02:56:56;;;;;;;14.48;6.93;;;;;;;-3.74;44.23;102099.22;5589039;31;34796;-63
2022/03/12 03:00:08;;;;;;;12.93;6.30;;;;;;;-3.73;43.96;102103.53;5588660;31;34167;-63
2022/03/12 03:03:11;;;;;;;14.50;6.68;;;;;;;-3.83;44.50;102107.22;5588578;31;34575;-62
2022/03/12 03:06:15;;;;;;;13.10;6.15;;;;;;;-4.04;44.85;102109.38;5587840;31;34100;-62
2022/03/12 03:09:17;;;;;;;12.50;6.50;;;;;;;-4.00;45.16;102115.34;5588459;31;34571;-63
2022/03/12 03:12:24;;;;;;;15.25;6.80;;;;;;;-3.93;45.44;102103.97;5588571;31;34178;-62
2022/03/12 03:15:28;;;;;;;17.80;7.35;;;;;;;-3.70;45.38;102103.44;5588843;31;34290;-62
2022/03/12 03:18:34;;;;;;;14.85;6.35;;;;;;;-3.75;44.98;102113.06;5588300;31;34233;-62
2022/03/12 03:21:37;;;;;;;14.90;7.32;;;;;;;-3.71;45.42;102114.69;5588602;31;34874;-63
2022/03/12 03:24:40;;;;;;;13.75;6.90;;;;;;;-3.76;45.68;102106.16;5589772;31;34072;-62
2022/03/12 03:27:43;;;;;;;18.85;7.22;;;;;;;-3.96;46.21;102104.87;5590785;31;34166;-63
2022/03/12 03:30:47;;;;;;;16.12;7.28;;;;;;;-3.82;46.43;102101.97;5590817;31;35045;-63
2022/03/12 03:33:50;;;;;;;13.68;7.68;;;;;;;-3.81;46.75;102110.59;5590735;31;34252;-62
2022/03/12 03:36:52;;;;;;;15.93;7.55;;;;;;;-3.86;46.88;102113.31;5590059;31;34079;-62
2022/03/12 03:39:55;;;;;;;14.95;7.28;;;;;;;-3.97;47.92;102108.34;5590679;31;34941;-63
2022/03/12 03:42:58;;;;;;;15.55;7.82;;;;;;;-3.96;47.96;102125.63;5590660;31;35560;-63
2022/03/12 03:46:00;;;;;;;16.05;7.85;;;;;;;-3.86;48.79;102118.47;5590822;31;34762;-63
2022/03/12 03:49:06;;;;;;;16.58;7.62;;;;;;;-4.10;49.13;102113.84;5589806;31;34916;-62
2022/03/12 03:52:09;;;;;;;17.08;7.90;;;;;;;-4.25;50.24;102114.16;5590988;31;34123;-63
2022/03/12 03:55:11;;;;;;;14.70;7.37;;;;;;;-4.22;51.50;102124.47;5590717;31;35489;-63
2022/03/12 03:58:15;;;;;;;16.27;7.87;;;;;;;-4.09;51.27;102118.13;5589889;31;35484;-63
2022/03/12 04:01:22;;;;;;;15.60;7.40;;;;;;;-4.27;51.66;102124.56;5590441;31;34992;-63
2022/03/12 04:04:28;;;;;;;16.00;7.95;;;;;;;-4.28;52.42;102122.00;5590550;31;34820;-63
2022/03/12 04:07:31;;;;;;;17.98;8.18;;;;;;;-4.02;51.58;102117.13;5590436;31;34214;-63
2022/03/12 04:10:35;;;;;;;15.95;8.07;;;;;;;-4.03;51.68;102110.25;5590435;31;34297;-63
2022/03/12 04:13:39;;;;;;;15.50;7.70;;;;;;;-4.15;52.10;102106.16;5590856;31;34182;-63
2022/03/12 04:16:44;;;;;;;15.23;7.45;;;;;;;-4.07;51.72;102111.19;5590364;31;34177;-63
2022/03/12 04:19:47;;;;;;;19.27;7.82;;;;;;;-4.08;52.05;102119.84;5590644;31;34232;-62
2022/03/12 04:22:52;;;;;;;18.83;7.85;;;;;;;-4.15;51.97;102119.13;5590303;31;34134;-61
2022/03/12 04:25:56;;;;;;;15.27;7.22;;;;;;;-4.13;51.96;102108.72;5590295;31;34174;-62
2022/03/12 04:28:59;;;;;;;16.50;7.05;;;;;;;-4.22;51.87;102112.38;5590267;31;34451;-63
2022/03/12 04:32:07;;;;;;;16.58;7.65;;;;;;;-4.22;52.37;102119.28;5590191;31;34264;-62
2022/03/12 04:35:11;;;;;;;16.23;8.18;;;;;;;-4.24;52.56;102111.53;5589295;31;34814;-62
2022/03/12 04:38:14;;;;;;;15.65;7.60;;;;;;;-4.17;52.24;102113.12;5590238;31;34531;-61
2022/03/12 04:41:17;;;;;;;15.10;8.00;;;;;;;-4.30;52.92;102116.84;5590280;31;34934;-62
2022/03/12 04:44:20;;;;;;;15.40;8.05;;;;;;;-4.04;52.29;102118.91;5589991;31;34249;-62
2022/03/12 04:47:24;;;;;;;15.60;7.35;;;;;;;-4.27;52.71;102114.19;5589350;31;34283;-62
2022/03/12 04:50:26;;;;;;;17.40;8.38;;;;;;;-4.33;54.02;102126.41;5590004;31;34206;-62
2022/03/12 04:53:30;;;;;;;16.83;8.35;;;;;;;-4.40;54.24;102126.53;5590018;31;34787;-62
2022/03/12 04:56:32;;;;;;;18.17;8.52;;;;;;;-4.55;56.18;102123.41;5590036;31;34818;-63
2022/03/12 04:59:35;;;;;;;18.08;7.62;;;;;;;-4.59;56.87;102121.72;5589997;31;34193;-62
2022/03/12 05:02:38;;;;;;;19.87;8.32;;;;;;;-4.65;57.21;102130.50;5589217;31;34642;-63
2022/03/12 05:05:43;;;;;;;18.02;8.85;;;;;;;-4.70;57.58;102126.28;5589199;31;34913;-62
2022/03/12 05:08:47;;;;;;;18.37;8.60;;;;;;;-4.70;57.54;102121.97;5589954;31;34163;-62
2022/03/12 05:11:50;;;;;;;16.75;8.38;;;;;;;-4.71;57.26;102124.56;5589868;31;34553;-62
2022/03/12 05:14:53;;;;;;;20.42;8.63;;;;;;;-4.52;56.72;102131.97;5589835;31;34234;-62
2022/03/12 05:17:57;;;;;;;17.00;8.68;;;;;;;-4.59;56.50;102132.09;5589793;31;34902;-62
2022/03/12 05:21:00;;;;;;;17.45;8.27;;;;;;;-4.62;56.34;102134.75;5589837;31;34183;-62
2022/03/12 05:24:08;;;;;;;20.00;8.30;;;;;;;-4.54;55.67;102141.50;5590006;31;34840;-62
2022/03/12 05:27:14;;;;;;;18.52;8.60;;;;;;;-4.54;55.79;102132.88;5590157;31;34391;-62
2022/03/12 05:30:17;;;;;;;15.10;7.65;;;;;;;-4.30;55.94;102139.28;5589168;31;34153;-62
2022/03/12 05:33:22;;;;;;;17.25;8.32;;;;;;;-4.22;55.79;102135.69;5589948;31;34098;-63
2022/03/12 05:36:25;;;;;;;21.10;8.40;;;;;;;-4.28;56.15;102133.22;5589769;31;34207;-62
2022/03/12 05:39:28;;;;;;;15.80;8.07;;;;;;;-4.34;56.20;102135.91;5589724;31;34172;-62
2022/03/12 05:42:34;;;;;;;18.98;8.50;;;;;;;-4.21;55.71;102136.56;5589939;31;34913;-62
2022/03/12 05:45:37;;;;;;;18.15;8.63;;;;;;;-4.09;55.27;102137.12;5589617;31;34503;-62
2022/03/12 05:48:41;;;;;;;15.82;7.37;;;;;;;-4.00;55.43;102136.09;5589723;31;34151;-63
2022/03/12 05:51:44;;;;;;;17.85;7.68;;;;;;;-3.80;53.74;102141.69;5589446;31;34482;-63
2022/03/12 05:54:48;;;;;;;16.52;7.75;;;;;;;-3.74;53.27;102138.97;5589541;31;35519;-62
2022/03/12 05:57:51;;;;;;;16.00;7.30;;;;;;;-3.72;53.50;102144.97;5589599;31;34172;-62
2022/03/12 06:00:55;;;;;;;16.37;7.37;;;;;;;-3.70;53.38;102147.53;5589523;31;34912;-62
2022/03/12 06:04:00;;;;;;;14.38;7.20;;;;;;;-3.57;52.37;102142.03;5589118;31;34524;-63
2022/03/12 06:07:03;;;;;;;15.90;7.43;;;;;;;-3.40;51.67;102148.56;5589397;31;34307;-62
2022/03/12 06:10:06;;;;;;;15.02;6.78;;;;;;;-3.19;51.45;102146.31;5589306;31;34925;-63
2022/03/12 06:13:10;;;;;;;16.17;7.32;;;;;;;-3.09;50.79;102137.41;5589369;31;34208;-63
2022/03/12 06:16:13;;;;;;;14.10;7.30;;;;;;;-3.09;50.88;102144.34;5589312;31;34158;-62
2022/03/12 06:19:19;;;;;;;17.85;7.82;;;;;;;-2.81;50.33;102147.94;5589193;31;34923;-63
2022/03/12 06:22:22;;;;;;;16.35;6.72;;;;;;;-2.79;49.96;102150.50;5589161;31;34910;-62
2022/03/12 06:25:24;;;;;;;18.73;6.43;;;;;;;-2.41;48.32;102150.31;5589234;31;34072;-62
2022/03/12 06:28:27;;;;;;;16.23;7.12;;;;;;;-2.35;47.47;102144.09;5588986;31;34092;-62
2022/03/12 06:31:33;;;;;;;15.50;6.75;;;;;;;-2.26;47.75;102142.09;5589005;31;34943;-62
2022/03/12 06:34:36;;;;;;;14.18;6.55;;;;;;;-1.99;46.89;102148.28;5588241;31;34359;-62
2022/03/12 06:37:42;;;;;;;16.77;6.18;;;;;;;-1.85;45.34;102156.53;5589378;31;34907;-62
2022/03/12 06:40:49;;;;;;;14.60;6.57;;;;;;;-1.50;44.34;102149.41;5588317;31;34868;-62
2022/03/12 06:43:53;;;;;;;18.95;6.68;;;;;;;-1.32;43.58;102156.63;5589188;31;34262;-62
2022/03/12 06:46:56;;;;;;;13.93;6.80;;;;;;;-0.91;42.15;102157.84;5588774;31;34947;-61
2022/03/12 06:50:00;;;;;;;13.82;7.30;;;;;;;-1.22;42.25;102165.84;5588817;31;34176;-62
2022/03/12 06:53:03;;;;;;;14.77;6.12;;;;;;;-0.97;41.78;102171.09;5588923;31;34931;-62
2022/03/12 06:56:09;;;;;;;11.07;6.25;;;;;;;-0.77;40.51;102171.28;5589062;31;34085;-63
2022/03/12 06:59:12;;;;;;;14.18;6.68;;;;;;;0.37;38.96;102178.41;5591836;31;34694;-62
2022/03/12 07:02:15;;;;;;;12.65;6.18;;;;;;;0.48;37.66;102167.56;5595249;31;34343;-62
2022/03/12 07:05:19;;;;;;;15.75;6.15;;;;;;;0.73;37.71;102173.50;5595290;31;34669;-62
2022/03/12 07:08:23;;;;;;;12.23;5.62;;;;;;;0.72;37.37;102184.88;5595205;31;34210;-62
2022/03/12 07:11:26;;;;;;;11.88;5.72;;;;;;;0.99;36.76;102180.31;5595498;31;34252;-63
2022/03/12 07:14:29;;;;;;;10.93;6.00;;;;;;;0.78;37.23;102183.75;5594901;31;34353;-63
2022/03/12 07:17:33;;;;;;;13.23;5.70;;;;;;;1.40;35.63;102180.34;5595328;31;34246;-63
2022/03/12 07:20:35;;;;;;;14.57;6.30;;;;;;;0.83;36.73;102184.44;5594950;31;34519;-62
2022/03/12 07:23:38;;;;;;;15.52;5.70;;;;;;;0.25;37.79;102181.47;5594771;31;34083;-62
2022/03/12 07:26:41;;;;;;;13.38;5.32;;;;;;;0.06;38.42;102177.88;5594645;31;34609;-62
2022/03/12 07:29:44;;;;;;;9.88;4.78;;;;;;;0.23;38.29;102185.94;5594574;31;35504;-62
2022/03/12 07:32:49;;;;;;;11.52;5.10;;;;;;;0.67;36.84;102179.00;5594651;31;35494;-62
2022/03/12 07:35:52;;;;;;;12.00;5.15;;;;;;;1.29;36.28;102171.19;5594487;31;34682;-62
2022/03/12 07:38:56;;;;;;;11.12;5.35;;;;;;;2.19;34.26;102173.28;5594723;31;34924;-62
2022/03/12 07:42:02;;;;;;;8.68;4.78;;;;;;;1.97;34.26;102176.94;5594315;31;34943;-63
2022/03/12 07:45:07;;;;;;;11.88;5.12;;;;;;;2.76;33.21;102168.81;5594762;31;34141;-61
2022/03/12 07:48:10;;;;;;;14.15;4.57;;;;;;;3.65;31.63;102170.47;5594742;31;34972;-62
2022/03/12 07:51:33;;;;;;;9.45;5.03;;;;;;;4.52;31.08;102156.09;5594181;31;34361;-62
2022/03/12 07:54:36;;;;;;;7.25;4.12;;;;;;;6.20;27.98;102151.28;5594262;31;34272;-62
2022/03/12 07:57:41;;;;;;;6.87;3.40;;;;;;;5.91;27.82;102157.53;5594633;31;34219;-61
2022/03/12 08:00:44;;;;;;;6.87;3.53;;;;;;;5.94;27.46;102154.72;5594082;31;34771;-62
2022/03/12 08:03:48;;;;;;;6.07;3.40;;;;;;;6.87;26.89;102147.78;5593588;31;34309;-63
2022/03/12 08:06:50;;;;;;;7.40;4.28;;;;;;;8.04;25.21;102142.37;5593796;31;34983;-63
2022/03/12 08:09:56;;;;;;;7.93;3.50;;;;;;;10.45;22.99;102145.19;5592741;31;35235;-64
2022/03/12 08:12:58;;;;;;;6.70;3.58;;;;;;;11.05;21.74;102151.75;5590270;31;34798;-63
2022/03/12 08:16:02;;;;;;;6.72;3.50;;;;;;;8.01;24.24;102158.47;5590406;31;34115;-63
2022/03/12 08:19:07;;;;;;;8.82;4.40;;;;;;;6.93;25.55;102149.19;5590350;31;34458;-63
2022/03/12 08:22:10;;;;;;;7.78;3.97;;;;;;;7.33;24.65;102142.94;5590191;31;34269;-63
2022/03/12 08:25:15;;;;;;;8.13;4.00;;;;;;;9.11;23.15;102149.53;5589857;31;34284;-63
2022/03/12 08:28:18;;;;;;;7.18;3.70;;;;;;;9.51;22.76;102149.16;5590271;31;34854;-63
2022/03/12 08:31:21;;;;;;;6.32;3.60;;;;;;;10.12;21.53;102152.34;5590187;31;34200;-63
2022/03/12 08:34:25;;;;;;;7.10;3.67;;;;;;;12.07;19.82;102143.00;5590041;31;34228;-62
2022/03/12 08:37:28;;;;;;;8.13;3.80;;;;;;;12.44;19.34;102144.06;5590470;31;34927;-63
2022/03/12 08:40:31;;;;;;;6.90;3.65;;;;;;;10.02;21.10;102147.72;5589606;31;33767;-63
2022/03/12 08:43:36;;;;;;;10.95;4.00;;;;;;;12.49;19.75;102139.19;5590049;31;34625;-63
2022/03/12 08:46:42;;;;;;;7.62;3.85;;;;;;;8.75;21.24;102148.78;5589947;31;35429;-63
2022/03/12 08:49:45;;;;;;;8.85;3.97;;;;;;;7.55;22.68;102142.31;5589970;31;34368;-63
2022/03/12 08:52:49;;;;;;;8.73;4.30;;;;;;;8.88;21.95;102138.97;5589854;31;34266;-63
2022/03/12 08:55:51;;;;;;;8.60;4.85;;;;;;;9.89;19.74;102139.06;5589961;31;34153;-63
2022/03/12 08:58:54;;;;;;;9.35;4.60;;;;;;;7.92;21.63;102147.72;5589908;31;34290;-63
2022/03/12 09:01:57;;;;;;;14.98;4.87;;;;;;;6.15;24.07;102137.56;5589766;31;34270;-63
2022/03/12 09:05:01;;;;;;;6.65;4.07;;;;;;;5.52;24.73;102140.56;5589579;31;34698;-63
2022/03/12 09:08:04;;;;;;;8.95;4.32;;;;;;;4.71;25.08;102146.25;5589740;31;34305;-63
2022/03/12 09:11:07;;;;;;;20.88;4.95;;;;;;;3.87;26.04;102139.56;5589070;31;34217;-63
2022/03/12 09:14:10;;;;;;;9.77;4.00;;;;;;;3.99;26.08;102138.03;5589884;31;34832;-63
2022/03/12 09:17:13;;;;;;;10.70;4.80;;;;;;;3.73;26.25;102136.78;5589713;31;34138;-63
2022/03/12 09:20:17;;;;;;;8.63;4.12;;;;;;;3.17;27.38;102130.09;5589488;31;34360;-63
2022/03/12 09:23:21;;;;;;;7.55;4.15;;;;;;;2.92;27.68;102132.22;5589030;31;34381;-63
2022/03/12 09:26:24;;;;;;;10.32;4.40;;;;;;;2.61;27.41;102127.66;5589557;31;34224;-63
2022/03/12 09:29:27;;;;;;;9.18;4.60;;;;;;;2.58;28.24;102120.78;5590077;31;34216;-63
2022/03/12 09:32:29;;;;;;;14.68;4.47;;;;;;;2.55;27.46;102118.31;5589556;31;34176;-63
2022/03/12 09:35:33;;;;;;;13.43;3.97;;;;;;;2.75;27.94;102116.50;5589406;31;34285;-62
2022/03/12 09:38:39;;;;;;;8.13;4.07;;;;;;;2.78;27.80;102111.94;5589066;31;34233;-63
2022/03/12 09:41:43;;;;;;;8.77;4.55;;;;;;;2.94;27.72;102110.28;5589601;31;34357;-63
2022/03/12 09:44:45;;;;;;;7.72;3.87;;;;;;;2.92;26.44;102106.00;5589429;31;34067;-63
2022/03/12 09:47:50;;;;;;;10.32;4.70;;;;;;;2.88;26.68;102102.72;5589868;31;34288;-62
2022/03/12 09:50:53;;;;;;;9.40;4.55;;;;;;;2.88;26.62;102107.94;5589479;31;34936;-63
2022/03/12 09:53:56;;;;;;;7.32;4.00;;;;;;;2.94;26.30;102101.56;5589396;31;34473;-62
2022/03/12 09:56:58;;;;;;;9.60;4.60;;;;;;;2.95;26.59;102104.09;5589277;31;34183;-62
2022/03/12 10:00:04;;;;;;;11.80;5.45;;;;;;;2.67;26.70;102101.13;5589196;31;35009;-63
2022/03/12 10:03:13;;;;;;;8.38;4.00;;;;;;;2.54;26.99;102097.44;5589273;31;34373;-63
2022/03/12 10:06:16;;;;;;;7.82;4.45;;;;;;;2.58;26.78;102101.59;5589233;31;34135;-63
2022/03/12 10:09:19;;;;;;;9.70;4.60;;;;;;;2.51;26.84;102097.59;5589417;31;34650;-63
2022/03/12 10:12:22;;;;;;;9.80;3.80;;;;;;;2.61;27.34;102099.66;5589223;31;34450;-63
2022/03/12 10:15:25;;;;;;;9.23;3.90;;;;;;;2.81;26.90;102090.81;5589678;31;35572;-62
2022/03/12 10:18:28;;;;;;;8.68;4.20;;;;;;;2.70;27.21;102089.69;5589566;31;34415;-63
2022/03/12 10:21:32;;;;;;;13.68;4.50;;;;;;;2.76;26.99;102086.75;5588740;31;34500;-64
2022/03/12 10:24:35;;;;;;;6.72;4.03;;;;;;;2.93;27.55;102097.22;5588827;31;34843;-62
2022/03/12 10:27:39;;;;;;;12.98;4.12;;;;;;;3.15;27.07;102086.53;5588725;31;34335;-63
2022/03/12 10:30:42;;;;;;;8.15;3.75;;;;;;;2.94;26.91;102086.69;5588862;31;34242;-62
2022/03/12 10:33:49;;;;;;;8.80;4.43;;;;;;;3.03;26.84;102090.59;5587560;31;34237;-62
2022/03/12 10:36:54;;;;;;;10.57;4.35;;;;;;;3.17;27.05;102092.53;5588342;31;34135;-63
2022/03/12 10:40:25;;;;;;;7.87;4.07;;;;;;;3.18;26.86;102084.59;5589071;31;34211;-62
2022/03/12 10:43:33;;;;;;;8.90;3.80;;;;;;;3.14;27.13;102079.56;5588777;31;34283;-63
2022/03/12 10:46:40;;;;;;;6.95;4.07;;;;;;;3.12;26.47;102078.78;5588727;31;34713;-63
2022/03/12 10:50:04;;;;;;;7.47;4.03;;;;;;;3.18;26.10;102075.88;5588717;31;34147;-62
2022/03/12 10:53:08;;;;;;;10.50;3.65;;;;;;;3.18;26.93;102078.50;5588573;31;34855;-62
2022/03/12 10:56:11;;;;;;;9.38;3.78;;;;;;;3.11;26.35;102066.59;5588501;31;35052;-63
2022/03/12 10:59:19;;;;;;;7.87;3.70;;;;;;;3.22;26.33;102069.53;5588299;31;34156;-62
2022/03/12 11:02:30;;;;;;;8.77;3.83;;;;;;;3.15;26.20;102062.94;5588054;31;34208;-63
2022/03/12 11:05:35;;;;;;;11.70;4.22;;;;;;;3.30;27.66;102060.31;5588306;31;34488;-62
2022/03/12 11:08:38;;;;;;;7.18;3.83;;;;;;;3.61;26.52;102056.09;5588322;31;34972;-62
2022/03/12 11:11:43;;;;;;;8.20;4.00;;;;;;;3.97;25.82;102055.88;5588224;31;34321;-62
2022/03/12 11:15:05;;;;;;;7.62;3.87;;;;;;;4.67;25.03;102045.69;5587570;31;34156;-62
2022/03/12 11:18:08;;;;;;;8.88;3.87;;;;;;;5.36;23.66;102034.53;5588407;31;35438;-62
2022/03/12 11:21:10;;;;;;;7.50;3.83;;;;;;;7.99;20.61;102038.78;5588095;31;34129;-63
2022/03/12 11:24:24;;;;;;;5.62;3.83;;;;;;;8.81;19.82;102030.06;5588086;31;34277;-62
2022/03/12 11:27:28;;;;;;;6.32;3.60;;;;;;;11.09;17.94;102014.19;5588052;31;34784;-62
2022/03/12 11:30:37;;;;;;;6.05;3.33;;;;;;;13.04;16.05;102015.12;5588157;31;34210;-63
2022/03/12 11:33:40;;;;;;;9.60;3.58;;;;;;;12.96;16.06;102016.84;5587939;31;34935;-63
2022/03/12 11:36:45;;;;;;;7.82;3.50;;;;;;;16.50;13.69;102014.56;5587893;31;34190;-63
2022/03/12 11:39:55;;;;;;;6.30;3.30;;;;;;;15.31;14.12;102016.66;5588338;31;34634;-63
2022/03/12 11:42:59;;;;;;;5.20;3.95;;;;;;;17.29;12.77;102008.47;5588065;31;34352;-64
2022/03/12 11:46:04;;;;;;;5.57;3.47;;;;;;;19.02;11.41;101999.03;5589376;31;34858;-63
2022/03/12 11:49:07;;;;;;;7.12;3.60;;;;;;;16.12;13.33;101991.06;5590542;31;34866;-63
2022/03/12 11:52:10;;;;;;;5.85;3.47;;;;;;;13.08;16.10;101995.19;5589780;31;34662;-64
2022/03/12 11:55:21;;;;;;;6.07;3.60;;;;;;;17.06;12.64;101991.44;5590358;31;34918;-64
2022/03/12 11:58:25;;;;;;;5.90;3.65;;;;;;;15.98;13.30;101986.34;5590529;31;34130;-65
2022/03/12 12:01:27;;;;;;;5.75;3.40;;;;;;;15.99;13.78;101978.19;5590356;31;34192;-64
2022/03/12 12:04:32;;;;;;;5.10;3.35;;;;;;;17.56;12.80;101966.97;5589502;31;34265;-65
2022/03/12 12:07:38;;;;;;;5.85;3.80;;;;;;;20.83;11.16;101965.66;5590374;31;34217;-65
2022/03/12 12:10:43;;;;;;;7.03;3.72;;;;;;;21.00;10.63;101958.13;5590607;31;34816;-65
2022/03/12 12:13:46;;;;;;;9.57;3.90;;;;;;;16.19;12.76;101943.91;5590611;31;34181;-64
2022/03/12 12:16:49;;;;;;;7.57;3.83;;;;;;;18.73;11.80;101957.81;5590386;31;34244;-64
2022/03/12 12:19:52;;;;;;;7.28;3.90;;;;;;;17.28;12.37;101950.44;5590275;31;34263;-65
2022/03/12 12:23:00;;;;;;;6.97;3.50;;;;;;;19.77;11.09;101950.34;5589972;31;34149;-65
2022/03/12 12:26:08;;;;;;;8.43;3.53;;;;;;;17.42;12.64;101940.88;5590138;31;34749;-67
2022/03/12 12:29:11;;;;;;;6.60;3.87;;;;;;;20.58;10.99;101948.25;5588865;31;34209;-65
2022/03/12 12:32:27;;;;;;;6.30;3.65;;;;;;;18.11;11.79;101934.59;5589678;31;34315;-66
2022/03/12 12:35:31;;;;;;;6.32;3.33;;;;;;;16.13;12.74;101944.56;5590148;31;35018;-65
2022/03/12 12:38:35;;;;;;;6.82;3.55;;;;;;;20.02;10.93;101939.22;5590188;31;34277;-65
2022/03/12 12:41:58;;;;;;;5.93;3.50;;;;;;;20.46;10.30;101934.50;5590002;31;34331;-65
2022/03/12 12:45:01;;;;;;;11.05;4.00;;;;;;;21.39;9.94;101922.44;5589830;31;34999;-66
2022/03/12 12:48:14;;;;;;;6.22;3.45;;;;;;;21.88;9.70;101927.59;5589686;31;34635;-65
2022/03/12 12:51:20;;;;;;;9.15;4.10;;;;;;;15.33;13.16;101927.28;5589976;31;34285;-65
2022/03/12 12:54:46;;;;;;;9.40;3.50;;;;;;;17.67;12.27;101918.28;5589881;31;34827;-65
2022/03/12 12:57:50;;;;;;;7.28;4.07;;;;;;;19.53;10.83;101927.28;5579728;31;34203;-65
2022/03/12 13:01:01;;;;;;;4.90;3.28;;;;;;;19.78;10.75;101926.94;5589900;31;34387;-64
2022/03/12 13:04:06;;;;;;;9.52;4.10;;;;;;;19.75;11.04;101928.16;5589896;31;34218;-64
2022/03/12 13:07:24;;;;;;;4.93;3.62;;;;;;;18.45;11.63;101915.34;5589462;31;34235;-66
2022/03/12 13:10:29;;;;;;;10.50;4.30;;;;;;;21.21;10.01;101913.00;5590052;31;34591;-65
2022/03/12 13:13:32;;;;;;;7.80;4.03;;;;;;;22.28;9.42;101912.28;5589741;31;34129;-65
2022/03/12 13:17:01;;;;;;;6.50;3.70;;;;;;;21.04;10.49;101900.87;5589726;31;35418;-65
2022/03/12 13:20:30;;;;;;;7.00;3.55;;;;;;;20.88;10.16;101903.03;5589785;31;34839;-65
2022/03/12 13:23:45;;;;;;;7.43;3.75;;;;;;;19.21;11.19;101897.25;5589606;31;34428;-65
2022/03/12 13:26:49;;;;;;;8.50;4.32;;;;;;;18.41;11.17;101897.06;5589641;31;34262;-66
2022/03/12 13:30:10;;;;;;;6.12;3.70;;;;;;;17.90;11.64;101896.84;5589624;31;34948;-64
2022/03/12 13:33:15;;;;;;;6.57;3.75;;;;;;;15.77;12.83;101897.69;5589425;31;34472;-65
2022/03/12 13:36:26;;;;;;;7.47;4.05;;;;;;;15.27;13.52;101895.00;5589938;31;34837;-65
2022/03/12 13:39:33;;;;;;;5.93;3.55;;;;;;;15.29;13.45;101890.34;5588881;31;34266;-65
2022/03/12 13:42:36;;;;;;;11.55;3.80;;;;;;;13.48;14.82;101882.97;5589300;31;34837;-64
2022/03/12 13:45:39;;;;;;;15.98;3.90;;;;;;;14.08;14.54;101867.22;5589229;31;35435;-65
2022/03/12 13:49:00;;;;;;;6.60;3.70;;;;;;;14.51;13.98;101863.72;5589394;31;34610;-64
2022/03/12 13:52:04;;;;;;;6.47;3.30;;;;;;;13.70;14.83;101859.53;5589230;31;34874;-64
2022/03/12 13:55:08;;;;;;;5.37;3.53;;;;;;;13.89;14.27;101857.53;5589044;31;34113;-64
2022/03/12 13:58:11;;;;;;;6.03;3.28;;;;;;;13.76;15.07;101853.56;5589366;31;34212;-64
2022/03/12 14:01:29;;;;;;;7.00;3.72;;;;;;;14.45;14.46;101853.66;5589714;31;34404;-64
2022/03/12 14:04:33;;;;;;;7.32;3.58;;;;;;;12.91;14.97;101856.59;5589286;31;34149;-63
2022/03/12 14:07:55;;;;;;;6.60;3.45;;;;;;;15.74;13.78;101852.50;5589027;31;34370;-64
2022/03/12 14:10:57;;;;;;;8.38;3.92;;;;;;;17.18;12.89;101849.78;5589257;31;34232;-64
2022/03/12 14:14:03;;;;;;;7.28;3.30;;;;;;;18.81;11.50;101853.69;5588939;31;34067;-64
2022/03/12 14:17:07;;;;;;;5.95;3.30;;;;;;;19.65;10.91;101849.56;5588282;31;34128;-63